Las Palmas, Spain
Current Conditions -  °F | °C
As of 9:00 PM on Thursday 20 Nov 2014 (Local Time) from GCLP Reporting Station
Scattered Clouds Scattered Clouds  
Wind Chill: 18°   Ceiling: Unl
Heat Index: 18°   Visibility: 6mi
Dew Point: 13°   Wind: 6mph
Humidity: 73%   Direction: 210°SSW
Pressure: 29.68"   Gusts: NA
Location:  28.12°N, 15.43°W
Report Text: GCLP 202100Z 21005KT 180V320 9999 FEW018 SCT040 18/13 Q1005 NOSIG
Loading
Personal Weather Stations






























Interactive Weather Map New forecast layout! Learn more

10-Day Weather Forecast

Advertisements
Track Severe Weather on mobile